Home > Products > Valid Products > TAF

000
FTUS42 KFFC 210000 AAA
TAFATL
TAF AMD
KATL 210036Z 2101/2206 26003KT P6SM FEW080 SCT120
     FM211000 29005KT P6SM FEW150
     FM211600 32011G18KT P6SM FEW250
     FM220100 33007KT P6SM SKC=



000
FTUS42 KFFC 202300
TAFATL
TAF
KATL 202322Z 2100/2206 24005KT P6SM FEW060
     FM210200 27004KT P6SM FEW070 SCT110
     FM211000 30006KT P6SM FEW150
     FM211600 32011G18KT P6SM FEW250
     FM220100 33007KT P6SM SKC=



000
FTUS42 KFFC 202300
TAFFTY
TAF
KFTY 202322Z 2100/2124 24003KT P6SM FEW050
     FM210200 27002KT P6SM FEW060 SCT100
     FM211000 30005KT P6SM FEW150
     FM211600 32010G16KT P6SM FEW250
     FM212300 33006KT P6SM SKC=



000
FTUS42 KFFC 202300
TAFPDK
TAF
KPDK 202322Z 2100/2124 24003KT P6SM FEW050
     FM210200 27002KT P6SM FEW060 SCT100
     FM211000 30005KT P6SM FEW150
     FM211600 32010G16KT P6SM FEW250
     FM212300 33006KT P6SM SKC=



000
FTUS42 KFFC 202300
TAFRYY
TAF
KRYY 202322Z 2100/2124 24003KT P6SM FEW050
     FM210100 27002KT P6SM FEW060 SCT100
     FM210900 30005KT P6SM FEW150
     FM211500 32010G16KT P6SM FEW250
     FM212300 33006KT P6SM SKC
      AMD NOT SKED 2104/2112=



000
FTUS42 KFFC 202300
TAFAHN
TAF
KAHN 202322Z 2100/2124 23003KT P6SM FEW050
     FM210200 26002KT P6SM FEW060 SCT120
     FM211000 29006KT P6SM FEW150
     FM211600 30010G16KT P6SM FEW250
     FM212300 31006KT P6SM SKC=



000
FTUS42 KFFC 202300
TAFCSG
TAF
KCSG 202322Z 2100/2124 23003KT P6SM FEW060
     FM210600 27002KT P6SM FEW120
     FM211500 31005KT P6SM FEW150
     FM211800 32010G16KT P6SM FEW250=



000
FTUS42 KFFC 202300
TAFMCN
TAF
KMCN 202322Z 2100/2124 23003KT P6SM FEW060
     FM210600 27002KT P6SM FEW120
     FM211500 31005KT P6SM FEW150
     FM211800 32010G16KT P6SM FEW250=



000
FTUS42 KFFC 202200 AAA
TAFAHN
TAF AMD
KAHN 202219Z 2022/2118 23004KT P6SM FEW050
     FM210200 26002KT P6SM FEW060 SCT110
     FM210900 29003KT P6SM SCT120
     FM211400 31006KT P6SM FEW150=



000
FTUS42 KFFC 202200 AAA
TAFRYY
TAF AMD
KRYY 202216Z 2022/2118 26006KT P6SM FEW050
     FM210000 28004KT P6SM FEW060 SCT110
     FM210700 31003KT P6SM SCT120
     FM211400 32007KT P6SM FEW150=



000
FTUS42 KFFC 202200 AAA
TAFRYY
TAF AMD
KRYY 202216Z 2022/2118 26006KT P6SM FEW050
     FM210000 28004KT P6SM FEW060 SCT110
     FM210700 31003KT P6SM SCT120
     FM211400 32007KT P6SM FEW150=



000
FTUS42 KFFC 202200 AAA
TAFPDK
TAF AMD
KPDK 202215Z 2022/2118 24005KT P6SM FEW050
     FM210000 27002KT P6SM FEW060 SCT110
     FM210800 30003KT P6SM SCT120
     FM211400 31006KT P6SM FEW150=



000
FTUS42 KFFC 202200 AAA
TAFFTY
TAF AMD
KFTY 202215Z 2022/2118 24005KT P6SM FEW050
     FM210000 27002KT P6SM FEW060 SCT110
     FM210800 30003KT P6SM SCT120
     FM211400 31006KT P6SM FEW150=



000
FTUS42 KFFC 202200 AAA
TAFPDK
TAF AMD
KPDK 202215Z 2022/2118 24005KT P6SM FEW050
     FM210000 27002KT P6SM FEW060 SCT110
     FM210800 30003KT P6SM SCT120
     FM211400 31006KT P6SM FEW150=



000
FTUS42 KFFC 202200 AAA
TAFFTY
TAF AMD
KFTY 202215Z 2022/2118 24005KT P6SM FEW050
     FM210000 27002KT P6SM FEW060 SCT110
     FM210800 30003KT P6SM SCT120
     FM211400 31006KT P6SM FEW150=



000
FTUS42 KFFC 202100 AAB
TAFATL
TAF AMD
KATL 202139Z 2022/2124 24006KT P6SM FEW050
     FM210000 27003KT P6SM FEW060 SCT100
     FM210900 30005KT P6SM SCT120
     FM211400 31008KT P6SM FEW150
     FM211800 32011G18KT P6SM FEW250=



000
FTUS42 KFFC 202100 AAB
TAFATL
TAF AMD
KATL 202139Z 2022/2124 24006KT P6SM FEW050
     FM210000 27003KT P6SM FEW060 SCT100
     FM210900 30005KT P6SM SCT120
     FM211400 31008KT P6SM FEW150
     FM211800 32011G18KT P6SM FEW250=



000
FTUS42 KFFC 201900 AAA
TAFATL
TAF AMD
KATL 201933Z 2020/2124 23008KT P6SM FEW050 FEW250
     FM210000 27003KT P6SM SCT100
     FM211400 31008KT P6SM FEW100
     FM211800 31011KT P6SM FEW250=



000
FTUS42 KFFC 201700
TAFPDK
TAF
KPDK 201729Z 2018/2118 22006KT P6SM FEW040 FEW250
     FM210000 00000KT P6SM SCT100
     FM211400 31004KT P6SM FEW100
     FM211700 31008KT P6SM FEW250=



000
FTUS42 KFFC 201700
TAFRYY
TAF
KRYY 201729Z 2018/2118 22006KT P6SM FEW040 FEW250
     FM210000 00000KT P6SM SCT100
     FM211400 31004KT P6SM FEW100
     FM211700 31008KT P6SM FEW250=



000
FTUS42 KFFC 201700
TAFFTY
TAF
KFTY 201729Z 2018/2118 22004KT P6SM FEW040 FEW250
     FM210000 00000KT P6SM SCT100
     FM211400 31004KT P6SM FEW100
     FM211700 31008KT P6SM FEW250=



000
FTUS42 KFFC 201700
TAFAHN
TAF
KAHN 201729Z 2018/2118 27005KT P6SM FEW040 FEW250
     FM210000 00000KT P6SM SCT100
     FM211400 31004KT P6SM FEW100
     FM211700 31008KT P6SM FEW250=



000
FTUS42 KFFC 201700
TAFATL
TAF
KATL 201729Z 2018/2124 22009KT P6SM FEW040 FEW250
     FM210000 27003KT P6SM SCT100
     FM211400 31008KT P6SM FEW100
     FM211800 31011KT P6SM FEW250=



000
FTUS42 KFFC 201700
TAFMCN
TAF
KMCN 201729Z 2018/2118 27005KT P6SM FEW250
     FM210000 00000KT P6SM SCT100
     FM211400 31004KT P6SM FEW100
     FM211700 31008KT P6SM FEW250=



000
FTUS42 KFFC 201700
TAFCSG
TAF
KCSG 201729Z 2018/2118 20004KT P6SM FEW040 FEW250
     FM210000 00000KT P6SM SCT100
     FM211400 31004KT P6SM FEW100
     FM211700 31008KT P6SM FEW250=



000
FTUS42 KFFC 201500 AAB
TAFATL
TAF AMD
KATL 201543Z 2016/2118 22005KT P6SM FEW040 FEW250
     FM210000 27003KT P6SM SCT100
     FM211400 31008KT P6SM FEW030=



000
FTUS42 KFFC 201400 AAA
TAFATL
TAF AMD
KATL 201406Z 2014/2118 15004KT P6SM SKC
     FM201600 22005KT P6SM FEW040 FEW250
     FM210000 27003KT P6SM SCT100
     FM211400 31008KT P6SM FEW030=



000
FTUS42 KFFC 201100
TAFATL
TAF
KATL 201136Z 2012/2118 13003KT P6SM SKC
     FM201600 22005KT P6SM FEW040 FEW250
     FM210000 27003KT P6SM SCT100
     FM211400 31008KT P6SM FEW030=



000
FTUS42 KFFC 201100
TAFFTY
TAF
KFTY 201136Z 2012/2112 00000KT P6SM SKC
      TEMPO 2012/2013 5SM BR
     FM201600 23004KT P6SM FEW040 FEW250
     FM210000 00000KT P6SM SCT100=



000
FTUS42 KFFC 201100
TAFCSG
TAF
KCSG 201136Z 2012/2112 00000KT P6SM SKC
     FM201600 16003KT P6SM FEW250
     FM201800 23004KT P6SM FEW040 FEW250
     FM210000 00000KT P6SM SCT100=



000
FTUS42 KFFC 201100
TAFAHN
TAF
KAHN 201136Z 2012/2112 00000KT P6SM SKC
      TEMPO 2012/2013 5SM BR
     FM201700 22004KT P6SM FEW040 FEW250
     FM210000 00000KT P6SM SCT100=



000
FTUS42 KFFC 201100
TAFRYY
TAF
KRYY 201136Z 2012/2112 00000KT P6SM SKC
      TEMPO 2012/2013 5SM BR
     FM201600 23004KT P6SM FEW040 FEW250
     FM210000 00000KT P6SM SCT100=



000
FTUS42 KFFC 201100
TAFPDK
TAF
KPDK 201136Z 2012/2112 00000KT P6SM SKC
      TEMPO 2012/2013 5SM BR
     FM201600 23004KT P6SM FEW040 FEW250
     FM210000 00000KT P6SM SCT100=



000
FTUS42 KFFC 201100
TAFMCN
TAF
KMCN 201136Z 2012/2112 00000KT P6SM SKC
      TEMPO 2012/2013 5SM BR
     FM201600 15003KT P6SM FEW250
     FM201800 22004KT P6SM FEW040 FEW250
     FM210000 00000KT P6SM SCT100=



000
FTUS42 KFFC 200900 AAA
TAFFTY
TAF AMD
KFTY 200955Z 2010/2106 00000KT P6SM SKC
      TEMPO 2011/2013 5SM BR
     FM201600 23004KT P6SM FEW040 FEW250
     FM210000 00000KT P6SM SCT100=



000
FTUS42 KFFC 200900 AAA
TAFPDK
TAF AMD
KPDK 200955Z 2010/2106 00000KT P6SM SKC
      TEMPO 2011/2013 5SM BR
     FM201600 23004KT P6SM FEW040 FEW250
     FM210000 00000KT P6SM SCT100=



000
FTUS42 KFFC 200900 AAA
TAFRYY
TAF AMD
KRYY 200955Z 2010/2106 00000KT P6SM SKC
      TEMPO 2011/2013 5SM BR
     FM201600 23004KT P6SM FEW040 FEW250
     FM210000 00000KT P6SM SCT100
      AMD NOT SKED TIL 201200=



000
FTUS42 KFFC 200900 AAB
TAFAHN
TAF AMD
KAHN 200955Z 2010/2106 00000KT P6SM SKC
      TEMPO 2011/2013 5SM BR
     FM201700 22004KT P6SM FEW040 FEW250
     FM210000 00000KT P6SM SCT100=



000
FTUS42 KFFC 200900 AAC
TAFATL
TAF AMD
KATL 200955Z 2010/2112 VRB03KT P6SM SKC
      TEMPO 2011/2013 5SM BR
     FM201600 22005KT P6SM FEW040 FEW250
     FM210000 27003KT P6SM SCT100=



000
FTUS42 KFFC 200900 AAA
TAFPDK
TAF AMD
KPDK 200955Z 2010/2106 00000KT P6SM SKC
      TEMPO 2011/2013 5SM BR
     FM201600 23004KT P6SM FEW040 FEW250
     FM210000 00000KT P6SM SCT100=



000
FTUS42 KFFC 200900 AAA
TAFFTY
TAF AMD
KFTY 200955Z 2010/2106 00000KT P6SM SKC
      TEMPO 2011/2013 5SM BR
     FM201600 23004KT P6SM FEW040 FEW250
     FM210000 00000KT P6SM SCT100=



000
FTUS42 KFFC 200900 AAB
TAFAHN
TAF AMD
KAHN 200955Z 2010/2106 00000KT P6SM SKC
      TEMPO 2011/2013 5SM BR
     FM201700 22004KT P6SM FEW040 FEW250
     FM210000 00000KT P6SM SCT100=



000
FTUS42 KFFC 200900 AAA
TAFRYY
TAF AMD
KRYY 200955Z 2010/2106 00000KT P6SM SKC
      TEMPO 2011/2013 5SM BR
     FM201600 23004KT P6SM FEW040 FEW250
     FM210000 00000KT P6SM SCT100
      AMD NOT SKED TIL 201200=



000
FTUS42 KFFC 200900 AAC
TAFATL
TAF AMD
KATL 200955Z 2010/2112 VRB03KT P6SM SKC
      TEMPO 2011/2013 5SM BR
     FM201600 22005KT P6SM FEW040 FEW250
     FM210000 27003KT P6SM SCT100=



000
FTUS42 KFFC 200900 AAA
TAFAHN
TAF AMD
KAHN 200902Z 2009/2106 00000KT P6SM SKC
      TEMPO 2010/2013 5SM BR
     FM201700 22004KT P6SM FEW040 FEW250
     FM210000 00000KT P6SM SCT100=



000
FTUS42 KFFC 200800 AAB
TAFATL
TAF AMD
KATL 200858Z 2009/2112 VRB03KT P6SM SKC
      TEMPO 2010/2013 5SM BR
     FM201600 22005KT P6SM FEW040 FEW250
     FM210000 27003KT P6SM SCT100=



000
FTUS42 KFFC 200800 AAB
TAFMCN
TAF AMD
KMCN 200858Z 2009/2106 00000KT 6SM BR SKC
      TEMPO 2010/2013 4SM BR
     FM201600 15003KT P6SM FEW250
     FM201800 22004KT P6SM FEW040 FEW250
     FM210000 00000KT P6SM SCT100=



000
FTUS42 KFFC 200700 AAA
TAFATL
TAF AMD
KATL 200751Z 2008/2112 VRB03KT P6SM SKC
      TEMPO 2009/2013 5SM BR
     FM201600 22005KT P6SM FEW040 FEW250
     FM210000 27003KT P6SM SCT100=



000
FTUS42 KFFC 200700 AAA
TAFATL
TAF AMD
KATL 200751Z 2008/2112 VRB03KT P6SM SKC
      TEMPO 2009/2013 5SM BR
     FM201600 22005KT P6SM FEW040 FEW250
     FM210000 27003KT P6SM SCT100=



000
FTUS42 KFFC 200700 AAA
TAFMCN
TAF AMD
KMCN 200730Z 2008/2106 00000KT 5SM BR SKC
      TEMPO 2009/2013 3SM BR
     FM201600 15003KT P6SM FEW250
     FM201800 22004KT P6SM FEW040 FEW250
     FM210000 00000KT P6SM SCT100=



000
FTUS42 KFFC 200700 AAA
TAFMCN
TAF AMD
KMCN 200730Z 2008/2106 00000KT 5SM BR SKC
      TEMPO 2009/2013 3SM BR
     FM201600 15003KT P6SM FEW250
     FM201800 22004KT P6SM FEW040 FEW250
     FM210000 00000KT P6SM SCT100=



000
FTUS42 KFFC 200500
TAFFTY
TAF
KFTY 200538Z 2006/2106 00000KT P6SM SKC
      TEMPO 2009/2013 4SM BR
     FM201600 23004KT P6SM FEW040 FEW250
     FM210000 00000KT P6SM SCT100=



000
FTUS42 KFFC 200500
TAFATL
TAF
KATL 200538Z 2006/2112 VRB03KT P6SM SKC
      TEMPO 2009/2013 4SM BR
     FM201600 22005KT P6SM FEW040 FEW250
     FM210000 27003KT P6SM SCT100=



000
FTUS42 KFFC 200500
TAFPDK
TAF
KPDK 200538Z 2006/2106 00000KT P6SM SKC
      TEMPO 2009/2013 4SM BR
     FM201600 23004KT P6SM FEW040 FEW250
     FM210000 00000KT P6SM SCT100=



000
FTUS42 KFFC 200500
TAFMCN
TAF
KMCN 200538Z 2006/2106 00000KT P6SM SKC
      TEMPO 2009/2013 4SM BR
     FM201600 15003KT P6SM FEW250
     FM201800 22004KT P6SM FEW040 FEW250
     FM210000 00000KT P6SM SCT100=



000
FTUS42 KFFC 200500
TAFCSG
TAF
KCSG 200538Z 2006/2106 00000KT P6SM SKC
      TEMPO 2009/2013 4SM BR
     FM201600 16003KT P6SM FEW250
     FM201800 23004KT P6SM FEW040 FEW250
     FM210000 00000KT P6SM SCT100=



000
FTUS42 KFFC 200500
TAFRYY
TAF
KRYY 200538Z 2006/2106 00000KT P6SM SKC
      TEMPO 2009/2013 4SM BR
     FM201600 23004KT P6SM FEW040 FEW250
     FM210000 00000KT P6SM SCT100
      AMD NOT SKED TIL 201200=



000
FTUS42 KFFC 200500
TAFAHN
TAF
KAHN 200538Z 2006/2106 00000KT P6SM SKC
      TEMPO 2009/2013 4SM BR
     FM201800 22004KT P6SM FEW040 FEW250
     FM210000 00000KT P6SM SCT100=



000
FTUS42 KFFC 200300 AAB
TAFATL
TAF AMD
KATL 200330Z 2004/2106 VRB03KT P6SM FEW250
     FM201800 22005KT P6SM FEW040 SCT250
     FM210000 27003KT P6SM FEW100 SCT250=



000
FTUS42 KFFC 200100 AAA
TAFATL
TAF AMD
KATL 200130Z 2002/2106 VRB03KT P6SM FEW250
     FM201800 22005KT P6SM FEW040 SCT250
     FM210000 27003KT P6SM FEW100 SCT250=



000
FTUS42 KFFC 192300
TAFFTY
TAF
KFTY 192320Z 2000/2024 00000KT P6SM FEW250
     FM201800 23004KT P6SM FEW040 SCT250=



000
FTUS42 KFFC 192300
TAFRYY
TAF
KRYY 192320Z 2000/2024 00000KT P6SM FEW250
     FM201700 26005KT P6SM FEW040 SCT250
      AMD NOT SKED 2004/2012=



000
FTUS42 KFFC 192300
TAFAHN
TAF
KAHN 192320Z 2000/2024 00000KT P6SM FEW250
     FM201800 22004KT P6SM FEW040 SCT250=



000
FTUS42 KFFC 192300
TAFATL
TAF
KATL 192320Z 2000/2106 VRB03KT P6SM FEW250
     FM201800 22005KT P6SM FEW040 SCT250
     FM210000 27003KT P6SM FEW100 SCT250=



000
FTUS42 KFFC 192300
TAFCSG
TAF
KCSG 192320Z 2000/2024 00000KT P6SM SKC
     FM201700 23004KT P6SM FEW040 SCT250=



000
FTUS42 KFFC 192300
TAFMCN
TAF
KMCN 192320Z 2000/2024 00000KT P6SM SKC
     FM201800 22004KT P6SM FEW040 SCT250=



000
FTUS42 KFFC 192300
TAFMCN
TAF
KMCN 192320Z 2000/2024 00000KT P6SM SKC
     FM201800 22004KT P6SM FEW040 SCT250=



000
FTUS42 KFFC 192300
TAFPDK
TAF
KPDK 192320Z 2000/2024 00000KT P6SM FEW250
     FM201800 24005KT P6SM FEW040 SCT250=



000
FTUS42 KFFC 192300
TAFAHN
TAF
KAHN 192320Z 2000/2024 00000KT P6SM FEW250
     FM201800 22004KT P6SM FEW040 SCT250=



000
FTUS42 KFFC 192300
TAFRYY
TAF
KRYY 192320Z 2000/2024 00000KT P6SM FEW250
     FM201700 26005KT P6SM FEW040 SCT250
      AMD NOT SKED 2004/2012=



000
FTUS42 KFFC 192300
TAFATL
TAF
KATL 192320Z 2000/2106 VRB03KT P6SM FEW250
     FM201800 22005KT P6SM FEW040 SCT250
     FM210000 27003KT P6SM FEW100 SCT250=



000
FTUS42 KFFC 192300
TAFCSG
TAF
KCSG 192320Z 2000/2024 00000KT P6SM SKC
     FM201700 23004KT P6SM FEW040 SCT250=



000
FTUS42 KFFC 192300
TAFFTY
TAF
KFTY 192320Z 2000/2024 00000KT P6SM FEW250
     FM201800 23004KT P6SM FEW040 SCT250=



000
FTUS42 KFFC 192300
TAFPDK
TAF
KPDK 192320Z 2000/2024 00000KT P6SM FEW250
     FM201800 24005KT P6SM FEW040 SCT250=



000
FTUS42 KFFC 192100 AAB
TAFATL
TAF AMD
KATL 192130Z 1922/2024 VRB03KT P6SM FEW250
     FM201800 22005KT P6SM FEW040 SCT250=



000
FTUS42 KFFC 191900 AAA
TAFATL
TAF AMD
KATL 191943Z 1920/2024 34003KT P6SM FEW250
     FM200100 13003KT P6SM FEW250
     FM201600 20004KT P6SM FEW040 FEW250=



000
FTUS42 KFFC 191700
TAFRYY
TAF
KRYY 191721Z 1918/2018 VRB02KT P6SM FEW250
     FM201700 20003KT P6SM FEW040 FEW250=



000
FTUS42 KFFC 191700
TAFATL
TAF
KATL 191721Z 1918/2024 03003KT P6SM FEW250
     FM192000 33003KT P6SM FEW250
     FM200100 13003KT P6SM FEW250
     FM201600 20004KT P6SM FEW040 FEW250=



000
FTUS42 KFFC 191700
TAFMCN
TAF
KMCN 191721Z 1918/2018 VRB02KT P6SM FEW250
     FM201700 20003KT P6SM FEW040 FEW250=



000
FTUS42 KFFC 191700
TAFFTY
TAF
KFTY 191721Z 1918/2018 VRB02KT P6SM FEW250
     FM201700 20003KT P6SM FEW040 FEW250=



000
FTUS42 KFFC 191700
TAFAHN
TAF
KAHN 191721Z 1918/2018 VRB02KT P6SM FEW250
     FM201700 20003KT P6SM FEW040 FEW250=



000
FTUS42 KFFC 191700
TAFPDK
TAF
KPDK 191721Z 1918/2018 VRB02KT P6SM FEW250
     FM201700 20003KT P6SM FEW040 FEW250=



000
FTUS42 KFFC 191700
TAFCSG
TAF
KCSG 191721Z 1918/2018 VRB02KT P6SM FEW250
     FM201700 20003KT P6SM FEW040 FEW250=



000
FTUS42 KFFC 191500 AAB
TAFATL
TAF AMD
KATL 191534Z 1916/2018 06005KT P6SM FEW250
     FM191900 33003KT P6SM FEW250
     FM200000 00000KT P6SM FEW250
     FM201500 20004KT P6SM FEW040 FEW250=



000
FTUS42 KFFC 191300 AAA
TAFATL
TAF AMD
KATL 191358Z 1914/2018 02005KT P6SM SCT250
     FM191500 05007KT P6SM FEW250
     FM191900 33003KT P6SM FEW250
     FM200000 00000KT P6SM FEW250
     FM201500 20004KT P6SM FEW040 FEW250=



000
FTUS42 KFFC 191100
TAFATL
TAF
KATL 191133Z 1912/2018 35007KT P6SM SCT250
     FM191500 05007KT P6SM FEW250
     FM191900 33003KT P6SM FEW250
     FM200000 00000KT P6SM FEW250
     FM201500 20004KT P6SM FEW040 FEW250=



000
FTUS42 KFFC 191100
TAFMCN
TAF
KMCN 191133Z 1912/2012 34005KT P6SM SCT250
     FM191500 04004KT P6SM FEW250
     FM200000 00000KT P6SM FEW250=



000
FTUS42 KFFC 191100
TAFCSG
TAF
KCSG 191133Z 1912/2012 02005KT P6SM SCT250
     FM191500 06003KT P6SM FEW250
     FM200000 00000KT P6SM FEW250=



000
FTUS42 KFFC 191100
TAFFTY
TAF
KFTY 191133Z 1912/2012 34005KT P6SM SCT250
     FM191500 VRB03KT P6SM FEW250
     FM192100 00000KT P6SM FEW250=



000
FTUS42 KFFC 191100
TAFPDK
TAF
KPDK 191133Z 1912/2012 34005KT P6SM SCT250
     FM191500 VRB03KT P6SM FEW250
     FM192100 00000KT P6SM FEW250=



000
FTUS42 KFFC 191100
TAFAHN
TAF
KAHN 191133Z 1912/2012 02005KT P6SM FEW250
     FM191500 VRB03KT P6SM FEW250
     FM191900 00000KT P6SM FEW250=



000
FTUS42 KFFC 191100
TAFRYY
TAF
KRYY 191133Z 1912/2012 33005KT P6SM SCT250
     FM191500 VRB03KT P6SM FEW250
     FM192100 00000KT P6SM FEW250=



000
FTUS42 KFFC 191000 AAB
TAFATL
TAF AMD
KATL 191003Z 1910/2012 35007KT P6SM SCT250
     FM191500 05007KT P6SM FEW250
     FM192100 VRB03KT P6SM FEW250=



000
FTUS42 KFFC 190700 AAA
TAFATL
TAF AMD
KATL 190742Z 1908/2012 34007KT P6SM SCT250
     FM191500 01005KT P6SM FEW250
     FM192100 VRB03KT P6SM FEW250=



000
FTUS42 KFFC 190500
TAFRYY
TAF
KRYY 190537Z 1906/2006 33005KT P6SM FEW050 SCT250
     FM191500 VRB03KT P6SM FEW250
     FM192100 00000KT P6SM FEW250
      AMD NOT SKED TIL 191200=



000
FTUS42 KFFC 190500
TAFCSG
TAF
KCSG 190537Z 1906/2006 02006KT P6SM FEW250
     FM191500 06003KT P6SM FEW250
     FM200000 00000KT P6SM FEW250=



000
FTUS42 KFFC 190500
TAFAHN
TAF
KAHN 190537Z 1906/2006 33005KT P6SM FEW250
     FM191200 VRB03KT P6SM FEW250
     FM191900 00000KT P6SM FEW250=



000
FTUS42 KFFC 190500
TAFATL
TAF
KATL 190537Z 1906/2012 34008KT P6SM FEW250
     FM191500 01005KT P6SM FEW250
     FM192100 VRB03KT P6SM FEW250=



000
FTUS42 KFFC 190500
TAFFTY
TAF
KFTY 190537Z 1906/2006 34005KT P6SM FEW250
     FM191500 VRB03KT P6SM FEW250
     FM192100 00000KT P6SM FEW250=



000
FTUS42 KFFC 190500
TAFMCN
TAF
KMCN 190537Z 1906/2006 34006KT P6SM FEW250
     FM191500 04004KT P6SM FEW250
     FM200000 00000KT P6SM FEW250=



000
FTUS42 KFFC 190500
TAFPDK
TAF
KPDK 190537Z 1906/2006 34006KT P6SM FEW250
     FM191500 VRB03KT P6SM FEW250
     FM192100 00000KT P6SM FEW250=



000
FTUS42 KFFC 190300 AAB
TAFATL
TAF AMD
KATL 190337Z 1904/2006 34010KT P6SM FEW250
     FM191500 01006KT P6SM FEW250
     FM192100 VRB03KT P6SM FEW250=



000
FTUS42 KFFC 190300 AAB
TAFATL
TAF AMD
KATL 190337Z 1904/2006 34010KT P6SM FEW250
     FM191500 01006KT P6SM FEW250
     FM192100 VRB03KT P6SM FEW250=



000
FTUS42 KFFC 190100 AAA
TAFATL
TAF AMD
KATL 190151Z 1902/2006 34010KT P6SM FEW250
     FM191500 01006KT P6SM FEW250
     FM192100 VRB03KT P6SM FEW250=



000
FTUS42 KFFC 182300
TAFAHN
TAF
KAHN 182320Z 1900/1924 31007KT P6SM FEW250
     FM191200 VRB03KT P6SM FEW250=



000
FTUS42 KFFC 182300
TAFMCN
TAF
KMCN 182320Z 1900/1924 33006KT P6SM FEW250
     FM191500 05005KT P6SM FEW250=



000
FTUS42 KFFC 182300
TAFFTY
TAF
KFTY 182320Z 1900/1924 33005KT P6SM FEW250
     FM191500 VRB03KT P6SM FEW250=



000
FTUS42 KFFC 182300
TAFCSG
TAF
KCSG 182320Z 1900/1924 35006KT P6SM SCT250
     FM191500 06005KT P6SM FEW250=



000
FTUS42 KFFC 182300
TAFRYY
TAF
KRYY 182320Z 1900/1924 33008KT P6SM FEW050 SCT250
     FM190200 34005KT P6SM FEW250
     FM191500 VRB03KT P6SM FEW250
      AMD NOT SKED 1904/1912=



000
FTUS42 KFFC 182300
TAFATL
TAF
KATL 182320Z 1900/2006 31010G16KT P6SM SCT250
     FM190200 33008KT P6SM FEW250
     FM191500 01006KT P6SM FEW250
     FM192100 VRB03KT P6SM FEW250=



000
FTUS42 KFFC 182300
TAFPDK
TAF
KPDK 182320Z 1900/1924 32010KT P6SM SCT250
     FM190200 33005KT P6SM FEW250
     FM191500 VRB03KT P6SM FEW250=



000
FTUS42 KFFC 182100 AAB
TAFATL
TAF AMD
KATL 182132Z 1822/1924 32010G18KT P6SM SCT250
     FM190300 33008KT P6SM FEW250
     FM191500 01006KT P6SM SKC
     FM192000 05004KT P6SM FEW250=



000
FTUS42 KFFC 181900 AAA
TAFATL
TAF AMD
KATL 181934Z 1820/1924 31012G21KT P6SM FEW250
     FM182300 32008G16KT P6SM SCT030
     FM190300 33008KT P6SM SKC
     FM191500 01006KT P6SM SKC
     FM192000 05006KT P6SM FEW250=



000
FTUS42 KFFC 181700
TAFMCN
TAF
KMCN 181731Z 1818/1918 29009G15KT P6SM SKC
     FM190100 33008KT P6SM SKC
     FM191300 01006KT P6SM SKC
     FM191500 05007KT P6SM SKC=



000
FTUS42 KFFC 181700
TAFRYY
TAF
KRYY 181731Z 1818/1918 31011G20KT P6SM FEW250
     FM182300 32008G15KT P6SM SCT030
     FM190500 33007KT P6SM SKC
     FM191500 01005KT P6SM SKC=



000
FTUS42 KFFC 181700
TAFPDK
TAF
KPDK 181731Z 1818/1918 30010G19KT P6SM FEW250
     FM182300 32007G15KT P6SM SCT030
     FM190300 33006KT P6SM SKC
     FM191400 01005KT P6SM SKC=



000
FTUS42 KFFC 181700
TAFAHN
TAF
KAHN 181731Z 1818/1918 28010G15KT P6SM SKC
     FM190200 32006KT P6SM SKC
     FM191400 02005KT P6SM SKC=



000
FTUS42 KFFC 181700
TAFATL
TAF
KATL 181731Z 1818/1924 31012G21KT P6SM FEW250
     FM182300 32008G16KT P6SM SCT030
     FM190300 33008KT P6SM SKC
     FM191500 01006KT P6SM SKC
     FM192000 05006KT P6SM FEW250=



000
FTUS42 KFFC 181700
TAFFTY
TAF
KFTY 181731Z 1818/1918 31008G16KT P6SM FEW250
     FM182300 32008G14KT P6SM SCT030
     FM190300 33006KT P6SM SKC
     FM191400 01005KT P6SM SKC=



000
FTUS42 KFFC 181700
TAFCSG
TAF
KCSG 181731Z 1818/1918 31008G13KT P6SM SKC
     FM190300 35008KT P6SM SKC
     FM190600 36005KT P6SM SKC
     FM191500 04006KT P6SM SKC=



000
FTUS42 KFFC 181500 AAB
TAFATL
TAF AMD
KATL 181540Z 1816/1918 30010G20KT P6SM SCT250
     FM181800 31015G25KT P6SM SCT250
     FM190300 33008KT P6SM FEW250
     FM191500 04006KT P6SM SKC=



000
FTUS42 KFFC 181500 AAB
TAFATL
TAF AMD
KATL 181540Z 1816/1918 30010G20KT P6SM SCT250
     FM181800 31015G25KT P6SM SCT250
     FM190300 33008KT P6SM FEW250
     FM191500 04006KT P6SM SKC=



000
FTUS42 KFFC 181300 AAA
TAFATL
TAF AMD
KATL 181350Z 1814/1918 28008KT P6SM FEW250
     FM181500 30010G20KT P6SM SCT250
     FM181800 31015G25KT P6SM SCT250
     FM190300 33008KT P6SM FEW250
     FM191500 04006KT P6SM SKC=



000
FTUS42 KFFC 181100
TAFMCN
TAF
KMCN 181135Z 1812/1912 00000KT P6SM SKC
     FM181400 28007KT P6SM SCT250
     FM181900 30010G18KT P6SM SCT250
     FM190100 33006KT P6SM FEW250=



000
FTUS42 KFFC 181100
TAFFTY
TAF
KFTY 181135Z 1812/1912 00000KT P6SM SKC
     FM181500 31006KT P6SM SCT250
     FM181800 31014G21KT P6SM SCT250
     FM190100 33006KT P6SM FEW250=



000
FTUS42 KFFC 181100
TAFRYY
TAF
KRYY 181135Z 1812/1912 00000KT P6SM SKC
     FM181400 31006KT P6SM SCT250
     FM181700 31014G21KT P6SM SCT250
     FM190100 33006KT P6SM FEW250=



000
FTUS42 KFFC 181100
TAFCSG
TAF
KCSG 181135Z 1812/1912 00000KT P6SM SKC
     FM181500 31006KT P6SM SCT250
     FM181900 31010G18KT P6SM SCT250
     FM190100 33006KT P6SM FEW250=



000
FTUS42 KFFC 181100
TAFPDK
TAF
KPDK 181135Z 1812/1912 24003KT P6SM SKC
     FM181400 30008KT P6SM SCT250
     FM181800 30014G21KT P6SM SCT250
     FM190100 33006KT P6SM FEW250=



000
FTUS42 KFFC 181100
TAFAHN
TAF
KAHN 181135Z 1812/1912 00000KT P6SM SKC
     FM181400 28008KT P6SM SCT250
     FM181800 30012G20KT P6SM SCT250
     FM190100 31006KT P6SM FEW250=



000
FTUS42 KFFC 181100
TAFATL
TAF
KATL 181135Z 1812/1918 28008KT P6SM SKC
     FM181400 30010G20KT P6SM SCT250
     FM181800 31015G25KT P6SM SCT250
     FM190300 33008KT P6SM FEW250
     FM191500 04006KT P6SM SKC=



000
FTUS42 KFFC 181100
TAFCSG
TAF
KCSG 181135Z 1812/1912 00000KT P6SM SKC
     FM181500 31006KT P6SM SCT250
     FM181900 31010G18KT P6SM SCT250
     FM190100 33006KT P6SM FEW250=



000
FTUS42 KFFC 181100
TAFAHN
TAF
KAHN 181135Z 1812/1912 00000KT P6SM SKC
     FM181400 28008KT P6SM SCT250
     FM181800 30012G20KT P6SM SCT250
     FM190100 31006KT P6SM FEW250=



000
FTUS42 KFFC 181100
TAFMCN
TAF
KMCN 181135Z 1812/1912 00000KT P6SM SKC
     FM181400 28007KT P6SM SCT250
     FM181900 30010G18KT P6SM SCT250
     FM190100 33006KT P6SM FEW250=



000
FTUS42 KFFC 181100
TAFRYY
TAF
KRYY 181135Z 1812/1912 00000KT P6SM SKC
     FM181400 31006KT P6SM SCT250
     FM181700 31014G21KT P6SM SCT250
     FM190100 33006KT P6SM FEW250=



000
FTUS42 KFFC 181100
TAFPDK
TAF
KPDK 181135Z 1812/1912 24003KT P6SM SKC
     FM181400 30008KT P6SM SCT250
     FM181800 30014G21KT P6SM SCT250
     FM190100 33006KT P6SM FEW250=



000
FTUS42 KFFC 181100
TAFATL
TAF
KATL 181135Z 1812/1918 28008KT P6SM SKC
     FM181400 30010G20KT P6SM SCT250
     FM181800 31015G25KT P6SM SCT250
     FM190300 33008KT P6SM FEW250
     FM191500 04006KT P6SM SKC=



000
FTUS42 KFFC 181100
TAFFTY
TAF
KFTY 181135Z 1812/1912 00000KT P6SM SKC
     FM181500 31006KT P6SM SCT250
     FM181800 31014G21KT P6SM SCT250
     FM190100 33006KT P6SM FEW250=



000
FTUS42 KFFC 180900 AAB
TAFATL
TAF AMD
KATL 180941Z 1810/1912 27008KT P6SM SKC
     FM181300 30007KT P6SM SCT250
     FM181800 31015G25KT P6SM SCT250
     FM190300 33010KT P6SM FEW250=



000
FTUS42 KFFC 180700 AAA
TAFATL
TAF AMD
KATL 180730Z 1808/1912 26008KT P6SM SKC
     FM181300 30007KT P6SM SCT250
     FM181800 31015G25KT P6SM SCT250
     FM190300 33010KT P6SM FEW250=



000
FTUS42 KFFC 180500
TAFRYY
TAF
KRYY 180520Z 1806/1906 00000KT P6SM SKC
     FM181400 31006KT P6SM SCT250
     FM181700 31014G21KT P6SM SCT250
     FM190100 33006KT P6SM FEW250
      AMD NOT SKED TIL 181200=



000
FTUS42 KFFC 180500
TAFFTY
TAF
KFTY 180520Z 1806/1906 00000KT P6SM SKC
     FM181500 31006KT P6SM SCT250
     FM181800 31014G21KT P6SM SCT250
     FM190100 33006KT P6SM FEW250=



000
FTUS42 KFFC 180500
TAFPDK
TAF
KPDK 180520Z 1806/1906 24003KT P6SM SKC
     FM181400 30008KT P6SM SCT250
     FM181800 30014G21KT P6SM SCT250
     FM190100 33006KT P6SM FEW250=



000
FTUS42 KFFC 180500
TAFCSG
TAF
KCSG 180520Z 1806/1906 00000KT P6SM SKC
     FM181500 31006KT P6SM SCT250
     FM181900 31010G18KT P6SM SCT250
     FM190100 33006KT P6SM FEW250=



000
FTUS42 KFFC 180500
TAFATL
TAF
KATL 180520Z 1806/1912 24004KT P6SM SKC
     FM181300 30007KT P6SM SCT250
     FM181800 31015G25KT P6SM SCT250
     FM190300 33010KT P6SM FEW250=



000
FTUS42 KFFC 180500
TAFAHN
TAF
KAHN 180520Z 1806/1906 00000KT P6SM SKC
     FM181400 28008KT P6SM SCT250
     FM181800 30012G20KT P6SM SCT250
     FM190100 31006KT P6SM FEW250=



000
FTUS42 KFFC 180500
TAFMCN
TAF
KMCN 180520Z 1806/1906 00000KT P6SM SKC
     FM181400 28007KT P6SM SCT250
     FM181900 30010G18KT P6SM SCT250
     FM190100 33006KT P6SM FEW250=



000
FTUS42 KFFC 180300 AAB
TAFATL
TAF AMD
KATL 180330Z 1804/1906 24004KT P6SM SKC
     FM181300 30007KT P6SM SCT250
     FM181800 31015G25KT P6SM SCT250
     FM190300 33007KT P6SM FEW250=



000
FTUS42 KFFC 180100 AAA
TAFATL
TAF AMD
KATL 180134Z 1802/1906 24004KT P6SM SKC
     FM181300 30007KT P6SM SCT250
     FM181800 31015G25KT P6SM SCT250
     FM190300 33007KT P6SM FEW250=



    US Dept of Commerce
    National Oceanic and Atmospheric Administration
    National Weather Service
    1325 East West Highway
    Silver Spring, MD 20910
    Page Author: NWS Internet Services Team
Disclaimer
Information Quality
Credits
Glossary
Privacy Policy
Freedom of Information Act (FOIA)
About Us
Career Opportunities